Time;durP1;ratioP1;P1;durP2;ratioP2;P2;SDS_P1;SDS_P2;PMS_P1;PMS_P2;Temp;Humidity;BMP_temperature;BMP_pressure;BME280_temperature;BME280_humidity;BME280_pressure;Samples;Min_cycle;Max_cycle;Signal;HPM_P1;HPM_P2
2022/04/05 00:01:23;;;;;;;27.67;15.03;;;10.80;99.90;;;;;;5092155;28;20287;-70
2022/04/05 00:03:49;;;;;;;29.37;14.70;;;10.90;99.90;;;;;;5074886;28;20181;-70
2022/04/05 00:06:14;;;;;;;27.57;14.43;;;10.80;99.90;;;;;;5092868;28;20293;-70
2022/04/05 00:08:40;;;;;;;33.03;14.47;;;10.80;99.90;;;;;;5058202;28;20644;-70
2022/04/05 00:11:06;;;;;;;24.57;15.03;;;10.70;99.90;;;;;;5092545;28;20203;-70
2022/04/05 00:13:32;;;;;;;24.93;13.73;;;10.80;99.90;;;;;;5067537;28;20181;-70
2022/04/05 00:15:57;;;;;;;29.67;14.03;;;10.90;99.90;;;;;;5071074;28;20693;-70
2022/04/05 00:18:23;;;;;;;32.10;15.83;;;11.00;99.90;;;;;;5091094;28;20184;-70
2022/04/05 00:20:49;;;;;;;25.40;14.60;;;11.00;99.90;;;;;;5073874;28;20284;-70
2022/04/05 00:23:14;;;;;;;32.77;15.03;;;11.00;99.90;;;;;;5065303;28;20262;-70
2022/04/05 00:25:40;;;;;;;36.27;15.07;;;11.00;99.90;;;;;;5068371;28;20184;-70
2022/04/05 00:28:06;;;;;;;30.33;14.67;;;11.00;99.90;;;;;;5062217;28;22053;-70
2022/04/05 00:30:32;;;;;;;35.07;14.57;;;11.00;99.90;;;;;;5057363;28;20195;-74
2022/04/05 00:32:57;;;;;;;30.87;14.17;;;11.00;99.90;;;;;;5090752;28;20271;-71
2022/04/05 00:35:23;;;;;;;26.60;14.83;;;11.00;99.90;;;;;;5031873;28;20189;-69
2022/04/05 00:37:50;;;;;;;33.10;15.47;;;11.10;99.90;;;;;;5055613;28;20194;-70
2022/04/05 00:40:16;;;;;;;28.37;14.23;;;11.10;99.90;;;;;;5062729;28;20209;-70
2022/04/05 00:42:42;;;;;;;38.73;16.23;;;11.00;99.90;;;;;;5086518;28;20204;-70
2022/04/05 00:45:09;;;;;;;37.03;16.13;;;11.00;99.90;;;;;;5091315;28;20301;-70
2022/04/05 00:47:36;;;;;;;27.83;13.40;;;11.00;99.90;;;;;;5090739;28;20177;-70
2022/04/05 00:50:04;;;;;;;28.47;15.10;;;11.00;99.90;;;;;;5072068;28;20188;-70
2022/04/05 00:52:29;;;;;;;38.00;16.73;;;11.10;99.90;;;;;;5041934;28;20205;-70
2022/04/05 00:54:58;;;;;;;32.83;14.90;;;11.20;99.90;;;;;;5088564;28;20220;-70
2022/04/05 00:57:24;;;;;;;30.63;15.03;;;11.10;99.90;;;;;;5077234;28;20283;-70
2022/04/05 00:59:55;;;;;;;28.13;14.03;;;11.20;99.90;;;;;;5073491;28;20769;-70
2022/04/05 01:02:23;;;;;;;38.53;15.00;;;11.10;99.90;;;;;;5085237;28;20668;-70
2022/04/05 01:04:49;;;;;;;29.07;14.73;;;11.10;99.90;;;;;;5064669;28;20181;-69
2022/04/05 01:07:19;;;;;;;31.40;14.67;;;11.10;99.90;;;;;;5042621;28;20182;-70
2022/04/05 01:09:45;;;;;;;29.93;14.50;;;11.20;99.90;;;;;;5077621;28;20201;-70
2022/04/05 01:12:13;;;;;;;31.63;12.90;;;11.20;99.90;;;;;;5076796;28;20645;-70
2022/04/05 01:14:41;;;;;;;24.33;13.67;;;11.20;99.90;;;;;;5077366;28;20184;-70
2022/04/05 01:17:07;;;;;;;25.77;14.27;;;11.10;99.90;;;;;;5095828;28;20184;-70
2022/04/05 01:19:34;;;;;;;27.40;16.80;;;11.10;99.90;;;;;;5077199;28;20287;-70
2022/04/05 01:22:01;;;;;;;30.73;15.07;;;11.20;99.90;;;;;;5077517;28;20223;-69
2022/04/05 01:24:27;;;;;;;25.67;13.03;;;11.30;99.90;;;;;;5077685;28;20613;-69
2022/04/05 01:26:56;;;;;;;31.77;16.63;;;11.30;99.90;;;;;;5095386;28;20211;-69
2022/04/05 01:29:26;;;;;;;30.70;14.43;;;11.40;99.90;;;;;;5095510;28;20176;-69
2022/04/05 01:31:58;;;;;;;27.70;13.67;;;11.40;99.90;;;;;;5076515;28;20207;-70
2022/04/05 01:34:28;;;;;;;22.33;13.03;;;11.50;99.90;;;;;;5095353;28;20180;-69
2022/04/05 01:36:57;;;;;;;26.90;14.33;;;11.60;99.90;;;;;;5076517;28;20188;-69
2022/04/05 01:39:25;;;;;;;29.27;15.90;;;11.50;99.90;;;;;;5077267;28;20177;-69
2022/04/05 01:41:59;;;;;;;28.47;15.50;;;11.40;99.90;;;;;;5095414;28;20263;-70
2022/04/05 01:44:26;;;;;;;34.80;14.30;;;11.50;99.90;;;;;;5095110;28;20172;-72
2022/04/05 01:46:52;;;;;;;25.67;14.40;;;11.50;99.90;;;;;;5057702;28;20194;-70
2022/04/05 01:49:18;;;;;;;30.40;16.20;;;11.40;99.90;;;;;;5045472;28;20513;-70
2022/04/05 01:51:45;;;;;;;29.37;14.87;;;11.40;99.90;;;;;;5094773;28;20192;-70
2022/04/05 01:54:13;;;;;;;29.63;15.60;;;11.40;99.90;;;;;;5077167;28;20185;-70
2022/04/05 01:56:43;;;;;;;28.50;15.07;;;11.40;99.90;;;;;;5093399;28;20549;-70
2022/04/05 01:59:14;;;;;;;24.10;14.80;;;11.50;99.90;;;;;;5076761;28;20629;-70
2022/04/05 02:01:40;;;;;;;35.50;16.17;;;11.70;99.90;;;;;;5059808;28;20215;-70
2022/04/05 02:04:07;;;;;;;28.57;15.60;;;11.80;99.90;;;;;;5060277;28;20185;-70
2022/04/05 02:06:32;;;;;;;31.63;15.10;;;11.70;99.90;;;;;;5093907;28;20214;-71
2022/04/05 02:08:58;;;;;;;34.00;15.80;;;11.60;99.90;;;;;;5076128;28;20188;-70
2022/04/05 02:11:24;;;;;;;32.53;16.33;;;11.60;99.90;;;;;;5076768;28;20196;-70
2022/04/05 02:13:50;;;;;;;29.10;15.43;;;11.70;99.90;;;;;;5042147;28;20192;-70
2022/04/05 02:16:15;;;;;;;34.23;16.20;;;11.70;99.90;;;;;;5076446;28;20184;-70
2022/04/05 02:18:41;;;;;;;32.10;15.77;;;11.60;99.90;;;;;;5076055;28;20195;-70
2022/04/05 02:21:07;;;;;;;30.13;14.97;;;11.60;99.90;;;;;;5067496;28;20720;-73
2022/04/05 02:23:33;;;;;;;30.60;14.97;;;11.50;99.90;;;;;;5057772;28;20185;-71
2022/04/05 02:25:59;;;;;;;33.70;15.90;;;11.50;99.90;;;;;;5094030;28;20184;-70
2022/04/05 02:28:25;;;;;;;29.37;14.37;;;11.60;99.90;;;;;;5094674;28;20220;-70
2022/04/05 02:30:52;;;;;;;29.57;15.80;;;11.60;99.90;;;;;;5059804;28;20588;-70
2022/04/05 02:33:18;;;;;;;29.07;13.90;;;11.60;99.90;;;;;;5076188;28;20184;-70
2022/04/05 02:35:43;;;;;;;29.90;15.07;;;11.60;99.90;;;;;;5076202;28;20249;-70
2022/04/05 02:38:09;;;;;;;30.33;14.27;;;11.70;99.90;;;;;;5075788;28;20582;-70
2022/04/05 02:40:35;;;;;;;29.10;14.70;;;11.80;99.90;;;;;;5093645;28;20211;-70
2022/04/05 02:43:03;;;;;;;30.80;14.70;;;11.70;99.90;;;;;;5076453;28;20200;-70
2022/04/05 02:45:29;;;;;;;25.73;14.70;;;11.70;99.90;;;;;;5057990;28;20180;-70
2022/04/05 02:47:55;;;;;;;32.30;14.50;;;11.60;99.90;;;;;;5059376;28;20187;-70
2022/04/05 02:50:21;;;;;;;27.53;14.33;;;11.60;99.90;;;;;;5094123;28;20207;-70
2022/04/05 02:52:48;;;;;;;26.63;14.67;;;11.60;99.90;;;;;;5075796;28;20192;-70
2022/04/05 02:55:15;;;;;;;30.20;15.97;;;11.70;99.90;;;;;;5074900;28;20649;-70
2022/04/05 02:57:42;;;;;;;30.63;14.93;;;11.70;99.90;;;;;;5075608;28;20189;-71
2022/04/05 03:00:11;;;;;;;30.07;14.43;;;11.70;99.90;;;;;;5075692;28;20691;-71
2022/04/05 03:02:37;;;;;;;29.60;15.20;;;11.60;99.90;;;;;;5058753;28;20281;-70
2022/04/05 03:05:05;;;;;;;31.27;16.53;;;11.70;99.90;;;;;;5059885;28;20586;-70
2022/04/05 03:07:31;;;;;;;27.47;14.27;;;11.70;99.90;;;;;;5092846;28;20220;-70
2022/04/05 03:09:56;;;;;;;29.30;14.83;;;11.70;99.90;;;;;;5061217;28;20234;-70
2022/04/05 03:12:22;;;;;;;26.40;14.27;;;11.80;99.90;;;;;;5075215;28;20241;-70
2022/04/05 03:14:48;;;;;;;26.70;14.00;;;11.70;99.90;;;;;;5093519;28;20199;-70
2022/04/05 03:17:13;;;;;;;25.83;14.13;;;11.50;99.90;;;;;;5057851;28;20268;-69
2022/04/05 03:19:39;;;;;;;26.50;14.37;;;11.60;99.90;;;;;;5093485;28;20664;-70
2022/04/05 03:22:09;;;;;;;32.80;13.43;;;11.70;99.90;;;;;;5093609;28;20533;-70
2022/04/05 03:24:35;;;;;;;26.80;14.77;;;11.70;99.90;;;;;;5075341;28;20185;-70
2022/04/05 03:27:01;;;;;;;26.67;13.67;;;11.60;99.90;;;;;;5065429;28;20200;-70
2022/04/05 03:29:27;;;;;;;29.97;15.30;;;11.60;99.90;;;;;;5092179;28;20184;-71
2022/04/05 03:31:53;;;;;;;32.37;14.43;;;11.70;99.90;;;;;;5070885;28;20186;-69
2022/04/05 03:34:19;;;;;;;29.87;14.20;;;11.70;99.90;;;;;;5080317;28;20172;-69
2022/04/05 03:36:44;;;;;;;30.43;14.77;;;11.80;99.90;;;;;;5093319;28;20195;-70
2022/04/05 03:39:13;;;;;;;30.23;15.57;;;11.60;99.90;;;;;;5074602;28;20655;-69
2022/04/05 03:41:39;;;;;;;34.30;15.57;;;11.70;99.90;;;;;;5093412;28;20696;-70
2022/04/05 03:44:05;;;;;;;25.13;13.17;;;11.70;99.90;;;;;;5077531;28;20233;-70
2022/04/05 03:46:32;;;;;;;23.30;12.60;;;11.70;99.90;;;;;;5066928;28;20196;-70
2022/04/05 03:48:57;;;;;;;31.70;15.10;;;11.70;99.90;;;;;;5092265;28;20314;-70
2022/04/05 03:51:23;;;;;;;24.27;12.47;;;11.70;99.90;;;;;;5075129;28;20661;-70
2022/04/05 03:53:48;;;;;;;26.63;13.80;;;11.70;99.90;;;;;;5091536;28;20230;-69
2022/04/05 03:56:14;;;;;;;27.90;14.43;;;11.70;99.90;;;;;;5032933;28;20203;-69
2022/04/05 03:58:40;;;;;;;31.47;14.97;;;11.70;99.90;;;;;;5072770;28;20201;-70
2022/04/05 04:01:06;;;;;;;31.70;14.70;;;11.70;99.90;;;;;;5092570;28;20208;-71
2022/04/05 04:03:35;;;;;;;21.77;13.97;;;11.70;99.90;;;;;;5073657;28;20181;-69
2022/04/05 04:06:01;;;;;;;28.10;14.97;;;11.70;99.90;;;;;;5074579;28;20181;-69
2022/04/05 04:08:27;;;;;;;30.03;15.40;;;11.60;99.90;;;;;;5092343;28;20594;-70
2022/04/05 04:10:52;;;;;;;25.93;14.57;;;11.70;99.90;;;;;;5074699;28;20184;-71
2022/04/05 04:13:19;;;;;;;29.07;13.13;;;11.80;99.90;;;;;;5032734;28;20178;-71
2022/04/05 04:15:45;;;;;;;31.33;15.30;;;11.60;99.90;;;;;;5074618;28;20185;-70
2022/04/05 04:18:11;;;;;;;36.10;14.47;;;11.60;99.90;;;;;;5056995;28;20297;-68
2022/04/05 04:20:42;;;;;;;26.90;13.73;;;11.60;99.90;;;;;;5074352;28;20201;-70
2022/04/05 04:23:08;;;;;;;29.23;12.37;;;11.70;99.90;;;;;;5074669;28;20203;-71
2022/04/05 04:25:34;;;;;;;26.13;14.23;;;11.80;99.90;;;;;;5091031;28;20268;-69
2022/04/05 04:28:00;;;;;;;25.50;14.07;;;11.90;99.90;;;;;;5091440;28;20184;-69
2022/04/05 04:30:26;;;;;;;27.40;14.53;;;11.90;99.90;;;;;;5057424;28;20192;-69
2022/04/05 04:32:53;;;;;;;27.50;15.20;;;11.80;99.90;;;;;;5074300;28;20184;-70
2022/04/05 04:35:20;;;;;;;24.90;13.50;;;11.80;99.90;;;;;;5057359;28;20320;-70
2022/04/05 04:37:46;;;;;;;27.57;14.30;;;11.80;99.90;;;;;;5074029;28;20188;-71
2022/04/05 04:40:12;;;;;;;30.63;15.40;;;11.80;99.90;;;;;;5073196;28;20269;-70
2022/04/05 04:42:38;;;;;;;26.57;14.17;;;11.70;99.90;;;;;;5074032;28;20241;-69
2022/04/05 04:45:04;;;;;;;28.77;14.33;;;11.80;99.90;;;;;;5092010;28;20188;-70
2022/04/05 04:47:29;;;;;;;26.53;15.23;;;11.60;99.90;;;;;;5074236;28;20184;-70
2022/04/05 04:49:55;;;;;;;27.50;13.70;;;11.60;99.90;;;;;;5092348;28;20676;-70
2022/04/05 04:52:21;;;;;;;27.47;15.03;;;11.60;99.90;;;;;;5056702;28;20185;-70
2022/04/05 04:54:47;;;;;;;23.90;14.00;;;11.50;99.90;;;;;;5067702;28;20275;-70
2022/04/05 04:57:12;;;;;;;24.37;15.10;;;11.50;99.90;;;;;;5060360;28;20185;-70
2022/04/05 04:59:38;;;;;;;28.10;15.93;;;11.60;99.90;;;;;;5057062;28;20197;-70
2022/04/05 05:02:04;;;;;;;27.40;15.63;;;11.70;99.90;;;;;;5073940;28;20231;-70
2022/04/05 05:04:30;;;;;;;25.10;15.10;;;11.70;99.90;;;;;;5091952;28;20620;-70
2022/04/05 05:06:56;;;;;;;24.23;14.23;;;11.80;99.90;;;;;;5079939;28;20181;-73
2022/04/05 05:09:22;;;;;;;26.37;14.67;;;11.80;99.90;;;;;;5092292;28;20199;-70
2022/04/05 05:11:47;;;;;;;23.63;13.90;;;11.80;99.90;;;;;;5073439;28;20293;-70
2022/04/05 05:14:13;;;;;;;27.37;14.07;;;11.70;99.90;;;;;;5074229;28;20184;-71
2022/04/05 05:16:38;;;;;;;30.70;15.93;;;11.70;99.90;;;;;;5057075;28;20187;-70
2022/04/05 05:19:07;;;;;;;21.73;13.33;;;11.70;99.90;;;;;;5072496;28;20192;-70
2022/04/05 05:21:33;;;;;;;22.40;12.90;;;11.90;99.90;;;;;;5057592;28;20300;-70
2022/04/05 05:23:59;;;;;;;23.80;13.73;;;11.80;99.90;;;;;;5057319;28;20275;-70
2022/04/05 05:26:24;;;;;;;21.37;13.80;;;11.80;99.90;;;;;;5073837;28;20196;-70
2022/04/05 05:28:50;;;;;;;20.43;11.33;;;11.60;99.90;;;;;;5067978;28;20181;-70
2022/04/05 05:31:16;;;;;;;22.03;12.27;;;11.50;99.90;;;;;;5087006;28;20220;-70
2022/04/05 05:33:42;;;;;;;19.13;12.10;;;11.40;99.90;;;;;;5091954;28;20169;-71
2022/04/05 05:36:07;;;;;;;22.33;12.17;;;11.50;99.90;;;;;;5075324;28;20196;-70
2022/04/05 05:38:33;;;;;;;18.27;12.07;;;11.50;99.90;;;;;;5064022;28;20192;-70
2022/04/05 05:40:59;;;;;;;20.07;12.20;;;11.50;99.90;;;;;;5089832;28;20239;-70
2022/04/05 05:43:24;;;;;;;19.23;12.07;;;11.60;99.90;;;;;;5095275;28;20192;-70
2022/04/05 05:45:53;;;;;;;19.57;11.33;;;11.50;99.90;;;;;;5060540;28;20284;-71
2022/04/05 05:48:19;;;;;;;22.43;12.80;;;11.60;99.90;;;;;;5076055;28;20180;-70
2022/04/05 05:50:45;;;;;;;20.93;10.83;;;11.70;99.90;;;;;;5077692;28;20215;-70
2022/04/05 05:53:10;;;;;;;15.43;9.90;;;11.70;99.90;;;;;;5077163;28;20173;-70
2022/04/05 05:55:36;;;;;;;21.80;10.97;;;11.80;99.90;;;;;;5076490;28;20225;-73
2022/04/05 05:58:05;;;;;;;17.37;9.43;;;11.80;99.90;;;;;;5059860;28;20208;-70
2022/04/05 06:00:31;;;;;;;21.47;10.00;;;11.70;99.90;;;;;;5095036;28;20208;-70
2022/04/05 06:03:01;;;;;;;19.50;11.27;;;11.60;99.90;;;;;;5076604;28;20590;-70
2022/04/05 06:05:27;;;;;;;16.07;10.83;;;11.70;99.90;;;;;;5094069;28;20315;-70
2022/04/05 06:07:53;;;;;;;17.63;9.13;;;11.70;99.90;;;;;;5094820;28;20187;-70
2022/04/05 06:10:20;;;;;;;14.97;9.70;;;11.80;99.90;;;;;;5093456;28;20181;-70
2022/04/05 06:12:48;;;;;;;17.17;11.05;;;11.80;99.90;;;;;;5076342;28;20184;-72
2022/04/05 06:15:15;;;;;;;19.77;9.60;;;11.80;99.90;;;;;;5076824;28;20527;-70
2022/04/05 06:17:46;;;;;;;17.42;10.13;;;11.90;99.90;;;;;;5076715;28;20188;-70
2022/04/05 06:20:13;;;;;;;22.20;10.40;;;11.90;99.90;;;;;;5071199;28;20220;-70
2022/04/05 06:23:11;;;;;;;21.13;10.52;;;11.80;99.90;;;;;;5065213;28;20211;-70
2022/04/05 06:25:38;;;;;;;24.25;12.60;;;11.80;99.90;;;;;;5059077;28;20208;-70
2022/04/05 06:28:06;;;;;;;18.73;12.40;;;11.90;99.90;;;;;;5059508;28;20184;-70
2022/04/05 06:30:34;;;;;;;18.85;12.25;;;12.00;99.90;;;;;;5059885;28;20648;-70
2022/04/05 06:33:20;;;;;;;22.20;11.48;;;12.20;99.90;;;;;;5076258;28;20268;-70
2022/04/05 06:35:48;;;;;;;20.77;12.00;;;12.20;99.90;;;;;;5094354;28;20613;-70
2022/04/05 06:38:14;;;;;;;19.15;11.02;;;12.20;99.90;;;;;;5093398;28;20556;-69
2022/04/05 06:40:43;;;;;;;22.45;12.80;;;12.30;99.90;;;;;;5076519;28;20205;-70
2022/04/05 06:43:13;;;;;;;18.52;13.25;;;12.20;99.90;;;;;;5076157;28;20201;-69
2022/04/05 06:45:40;;;;;;;21.70;12.10;;;12.10;99.90;;;;;;5094336;28;20606;-70
2022/04/05 06:48:06;;;;;;;20.77;12.15;;;12.10;99.90;;;;;;5093650;28;20185;-70
2022/04/05 06:50:33;;;;;;;23.38;13.50;;;12.30;99.90;;;;;;5058974;28;20188;-69
2022/04/05 06:53:00;;;;;;;21.23;12.98;;;12.30;99.90;;;;;;5074870;28;20226;-70
2022/04/05 06:55:27;;;;;;;22.35;12.57;;;12.40;99.90;;;;;;5076225;28;20176;-69
2022/04/05 06:57:53;;;;;;;23.20;12.88;;;12.40;99.90;;;;;;5093426;28;20188;-69
2022/04/05 07:00:22;;;;;;;17.00;11.20;;;12.30;99.90;;;;;;5075040;28;20200;-69
2022/04/05 07:02:47;;;;;;;21.60;12.35;;;12.20;99.90;;;;;;5084493;28;20184;-69
2022/04/05 07:05:13;;;;;;;16.83;11.18;;;12.40;99.90;;;;;;5093816;28;20638;-69
2022/04/05 07:07:39;;;;;;;20.85;11.75;;;12.30;99.90;;;;;;5075545;28;20701;-69
2022/04/05 07:10:08;;;;;;;25.77;12.68;;;12.30;99.90;;;;;;5074554;28;20177;-69
2022/04/05 07:12:35;;;;;;;20.30;12.23;;;12.30;99.90;;;;;;5075634;28;20188;-69
2022/04/05 07:15:00;;;;;;;22.13;11.82;;;12.40;99.90;;;;;;5075488;28;20633;-69
2022/04/05 07:17:26;;;;;;;19.67;11.27;;;12.10;99.90;;;;;;5093421;28;20188;-72
2022/04/05 07:19:52;;;;;;;21.23;10.80;;;12.10;99.90;;;;;;5093263;28;20184;-69
2022/04/05 07:22:19;;;;;;;22.05;12.40;;;12.20;99.90;;;;;;5093574;28;20220;-69
2022/04/05 07:24:46;;;;;;;17.42;11.40;;;12.00;99.90;;;;;;5059014;28;20188;-69
2022/04/05 07:27:12;;;;;;;18.52;10.70;;;12.10;99.90;;;;;;5057919;28;20177;-69
2022/04/05 07:29:39;;;;;;;18.38;12.00;;;12.10;99.90;;;;;;5075284;28;20215;-70
2022/04/05 07:32:05;;;;;;;16.15;10.27;;;12.10;99.90;;;;;;5074644;28;20204;-69
2022/04/05 07:34:31;;;;;;;22.77;11.90;;;12.20;99.90;;;;;;5093451;28;20185;-69
2022/04/05 07:37:00;;;;;;;23.27;11.45;;;12.10;99.90;;;;;;5058270;28;20584;-69
2022/04/05 07:39:26;;;;;;;22.67;12.23;;;12.20;99.90;;;;;;5057510;28;20725;-69
2022/04/05 07:41:52;;;;;;;17.92;11.93;;;12.20;99.90;;;;;;5092622;28;20212;-69
2022/04/05 07:44:19;;;;;;;14.77;10.73;;;12.40;99.90;;;;;;5074066;28;20185;-70
2022/04/05 07:46:45;;;;;;;17.85;10.85;;;12.40;99.90;;;;;;5080016;28;20189;-69
2022/04/05 07:49:11;;;;;;;18.60;12.00;;;12.50;99.90;;;;;;5071353;28;20219;-69
2022/04/05 07:51:37;;;;;;;20.50;11.18;;;12.70;99.90;;;;;;5064562;28;20216;-69
2022/04/05 07:54:04;;;;;;;17.42;12.55;;;12.60;99.90;;;;;;5092363;28;20175;-68
2022/04/05 07:56:30;;;;;;;17.15;10.68;;;12.60;99.90;;;;;;5074994;28;20192;-68
2022/04/05 07:58:56;;;;;;;19.25;11.25;;;12.40;99.90;;;;;;5073869;28;20197;-69
2022/04/05 08:01:21;;;;;;;16.08;11.80;;;12.40;99.90;;;;;;5074790;28;20219;-68
2022/04/05 08:03:47;;;;;;;20.92;11.20;;;12.50;99.90;;;;;;5058156;28;20188;-68
2022/04/05 08:06:13;;;;;;;15.27;10.88;;;12.80;99.90;;;;;;5058399;28;20542;-68
2022/04/05 08:08:38;;;;;;;17.05;10.27;;;12.90;99.90;;;;;;5073460;28;20197;-70
2022/04/05 08:11:04;;;;;;;17.63;11.13;;;12.80;99.90;;;;;;5074748;28;20692;-69
2022/04/05 08:13:30;;;;;;;17.95;10.45;;;12.70;99.90;;;;;;5074848;28;20184;-72
2022/04/05 08:15:56;;;;;;;18.80;10.88;;;12.80;99.90;;;;;;5057560;28;20197;-69
2022/04/05 08:18:22;;;;;;;15.50;11.05;;;12.70;99.90;;;;;;5063179;28;20182;-69
2022/04/05 08:20:48;;;;;;;21.50;11.35;;;12.70;99.90;;;;;;5067047;28;20211;-69
2022/04/05 08:23:17;;;;;;;14.38;10.48;;;12.70;99.90;;;;;;5073819;28;20299;-69
2022/04/05 08:25:43;;;;;;;17.33;10.65;;;12.70;99.90;;;;;;5073605;28;20161;-69
2022/04/05 08:28:08;;;;;;;16.92;10.38;;;12.80;99.90;;;;;;5066653;28;20191;-68
2022/04/05 08:30:34;;;;;;;16.52;11.23;;;12.70;99.90;;;;;;5073491;28;20180;-70
2022/04/05 08:33:00;;;;;;;18.27;11.00;;;12.80;99.90;;;;;;5074668;28;20189;-68
2022/04/05 08:35:26;;;;;;;18.40;11.23;;;12.90;99.90;;;;;;5074355;28;20200;-68
2022/04/05 08:37:54;;;;;;;15.50;10.43;;;12.90;99.90;;;;;;5064774;28;20185;-70
2022/04/05 08:40:21;;;;;;;14.32;10.63;;;12.80;99.90;;;;;;5074087;28;20209;-68
2022/04/05 08:42:54;;;;;;;12.98;9.60;;;13.10;99.90;;;;;;5057958;28;20275;-68
2022/04/05 08:45:21;;;;;;;12.85;9.20;;;13.00;99.90;;;;;;5073393;28;20213;-69
2022/04/05 08:47:50;;;;;;;15.35;10.45;;;13.10;99.90;;;;;;5077619;28;20181;-69
2022/04/05 08:50:23;;;;;;;16.55;10.70;;;13.20;99.90;;;;;;5091467;28;20168;-68
2022/04/05 08:52:49;;;;;;;15.75;10.50;;;13.10;99.90;;;;;;5092458;28;20169;-68
2022/04/05 08:55:16;;;;;;;11.35;9.10;;;13.00;99.90;;;;;;5074873;28;20184;-68
2022/04/05 08:57:42;;;;;;;14.30;9.73;;;12.80;99.90;;;;;;5091605;28;20276;-68
2022/04/05 09:00:11;;;;;;;16.35;9.50;;;12.60;99.90;;;;;;5092361;28;20193;-68
2022/04/05 09:02:51;;;;;;;13.85;9.95;;;12.80;99.90;;;;;;5090706;28;20298;-68
2022/04/05 09:05:38;;;;;;;17.10;9.48;;;12.70;99.90;;;;;;5092375;28;20192;-68
2022/04/05 09:08:23;;;;;;;17.27;9.88;;;12.90;99.90;;;;;;5092083;28;20168;-68
2022/04/05 09:10:54;;;;;;;15.10;10.90;;;13.10;99.90;;;;;;5083090;28;20230;-68
2022/04/05 09:13:23;;;;;;;15.57;10.50;;;13.30;99.90;;;;;;5094694;28;20517;-69
2022/04/05 09:15:53;;;;;;;13.07;9.27;;;13.50;99.90;;;;;;5078611;28;20233;-68
2022/04/05 09:18:35;;;;;;;10.65;8.32;;;13.60;99.90;;;;;;5095317;28;20665;-68
2022/04/05 09:21:02;;;;;;;13.57;8.52;;;13.70;99.90;;;;;;5095570;28;20208;-68
2022/04/05 09:23:33;;;;;;;13.73;9.23;;;13.60;99.90;;;;;;5077370;28;20233;-68
2022/04/05 09:26:10;;;;;;;10.35;8.10;;;13.50;99.90;;;;;;5095827;28;20546;-68
2022/04/05 09:28:39;;;;;;;12.32;8.13;;;13.40;99.90;;;;;;5095779;28;20548;-68
2022/04/05 09:31:07;;;;;;;18.45;9.43;;;13.40;99.90;;;;;;5095559;28;20595;-68
2022/04/05 09:33:37;;;;;;;10.23;8.07;;;13.20;99.90;;;;;;5095182;28;20176;-68
2022/04/05 09:36:31;;;;;;;15.65;10.40;;;13.00;99.90;;;;;;5077148;28;20191;-68
2022/04/05 09:39:17;;;;;;;17.88;9.00;;;13.00;99.90;;;;;;5095617;28;20185;-67
2022/04/05 09:41:44;;;;;;;13.13;9.98;;;13.10;99.90;;;;;;5077303;28;20199;-68
2022/04/05 09:44:10;;;;;;;17.63;9.88;;;13.20;99.90;;;;;;5094308;28;20188;-68
2022/04/05 09:46:36;;;;;;;13.43;8.80;;;13.40;99.90;;;;;;5077094;28;20221;-67
2022/04/05 09:49:09;;;;;;;11.95;8.55;;;13.40;99.90;;;;;;5094283;28;20550;-68
2022/04/05 09:51:45;;;;;;;13.18;8.30;;;13.40;99.90;;;;;;5095507;28;20649;-68
2022/04/05 09:54:27;;;;;;;12.40;7.60;;;13.50;99.90;;;;;;5094874;28;20177;-68
2022/04/05 09:57:06;;;;;;;12.98;9.00;;;13.40;99.90;;;;;;5094967;28;20172;-68
2022/04/05 09:59:50;;;;;;;10.50;8.35;;;13.70;99.90;;;;;;5094864;28;20196;-69
2022/04/05 10:02:18;;;;;;;12.25;8.35;;;13.80;99.90;;;;;;5075190;28;20211;-68
2022/04/05 10:05:09;;;;;;;12.50;9.50;;;14.00;99.90;;;;;;5081687;28;20189;-69
2022/04/05 10:07:36;;;;;;;8.88;7.50;;;14.20;99.90;;;;;;5058082;28;20238;-66
2022/04/05 10:10:05;;;;;;;10.10;6.88;;;14.30;99.90;;;;;;5091924;28;20184;-68
2022/04/05 10:12:31;;;;;;;9.48;7.72;;;14.00;99.90;;;;;;5094656;28;20373;-68
2022/04/05 10:14:59;;;;;;;9.30;7.95;;;14.20;99.90;;;;;;5075054;28;20181;-67
2022/04/05 10:17:27;;;;;;;11.45;7.50;;;14.10;99.90;;;;;;5077173;28;20192;-68
2022/04/05 10:19:54;;;;;;;9.95;8.23;;;14.00;99.90;;;;;;5076781;28;20181;-68
2022/04/05 10:22:22;;;;;;;11.98;7.35;;;14.10;99.90;;;;;;5092798;28;20722;-68
2022/04/05 10:24:52;;;;;;;12.30;8.27;;;14.30;99.90;;;;;;5084636;28;20223;-68
2022/04/05 10:27:19;;;;;;;10.15;7.45;;;14.00;99.90;;;;;;5067351;28;20403;-67
2022/04/05 10:29:59;;;;;;;10.60;8.27;;;14.00;99.90;;;;;;5094518;28;20183;-68
2022/04/05 10:32:31;;;;;;;10.57;7.28;;;13.80;99.90;;;;;;5076299;28;20172;-68
2022/04/05 10:35:06;;;;;;;10.48;7.78;;;13.70;99.90;;;;;;5094411;28;20632;-68
2022/04/05 10:37:35;;;;;;;12.00;6.93;;;13.80;99.90;;;;;;5094321;28;20199;-69
2022/04/05 10:40:01;;;;;;;12.65;8.55;;;13.90;99.90;;;;;;5094072;28;20567;-68
2022/04/05 10:42:53;;;;;;;9.63;7.80;;;14.00;99.90;;;;;;5094030;28;20238;-67
2022/04/05 10:45:21;;;;;;;9.95;7.57;;;14.20;99.90;;;;;;5058060;28;20216;-68
2022/04/05 10:48:08;;;;;;;9.57;6.88;;;14.30;99.90;;;;;;5094446;28;20220;-68
2022/04/05 10:50:34;;;;;;;10.05;8.30;;;14.10;99.90;;;;;;5072046;28;20180;-68
2022/04/05 10:53:14;;;;;;;11.60;8.20;;;14.20;99.90;;;;;;5062683;28;20239;-67
2022/04/05 10:56:07;;;;;;;10.85;8.00;;;14.30;99.90;;;;;;5075800;28;20181;-68
2022/04/05 10:58:37;;;;;;;9.80;7.45;;;14.40;99.90;;;;;;5093728;28;20283;-68
2022/04/05 11:01:24;;;;;;;9.40;7.07;;;14.10;99.90;;;;;;5092702;28;20669;-68
2022/04/05 11:04:18;;;;;;;9.88;7.35;;;14.10;99.90;;;;;;5061581;28;20201;-67
2022/04/05 11:07:02;;;;;;;11.90;7.57;;;14.10;99.90;;;;;;5093115;28;20226;-68
2022/04/05 11:09:34;;;;;;;8.85;6.28;;;14.40;99.90;;;;;;5093529;28;20626;-67
2022/04/05 11:12:05;;;;;;;11.05;7.93;;;14.70;99.90;;;;;;5093787;28;20649;-67
2022/04/05 11:14:58;;;;;;;8.63;6.95;;;14.70;99.90;;;;;;5075621;28;20642;-67
2022/04/05 11:17:28;;;;;;;8.85;6.53;;;14.70;99.90;;;;;;5069491;28;20184;-68
2022/04/05 11:19:58;;;;;;;9.13;6.75;;;14.80;99.90;;;;;;5058964;28;20204;-68
2022/04/05 11:22:24;;;;;;;13.73;11.27;;;14.60;99.90;;;;;;5075662;28;20193;-67
2022/04/05 11:24:59;;;;;;;8.35;6.90;;;14.80;99.90;;;;;;5093201;28;20563;-68
2022/04/05 11:27:32;;;;;;;8.85;6.38;;;14.90;99.90;;;;;;5092366;28;20199;-68
2022/04/05 11:30:22;;;;;;;11.90;7.55;;;15.20;99.90;;;;;;5074788;28;20177;-68
2022/04/05 11:33:06;;;;;;;11.25;7.40;;;15.20;99.90;;;;;;5093430;28;20200;-71
2022/04/05 11:35:43;;;;;;;9.40;7.63;;;15.00;99.90;;;;;;5055962;28;20622;-68
2022/04/05 11:38:33;;;;;;;8.80;7.05;;;15.40;99.90;;;;;;5058732;28;20192;-68
2022/04/05 11:41:29;;;;;;;16.33;6.50;;;15.60;99.90;;;;;;5092918;28;20205;-68
2022/04/05 11:43:56;;;;;;;12.73;6.72;;;15.70;99.90;;;;;;5073783;28;20204;-68
2022/04/05 11:46:27;;;;;;;6.43;5.65;;;15.70;99.90;;;;;;5075027;28;20191;-67
2022/04/05 11:48:58;;;;;;;8.27;6.18;;;15.60;99.90;;;;;;5074589;28;20184;-67
2022/04/05 11:51:30;;;;;;;10.35;6.82;;;15.70;99.90;;;;;;5092188;28;20168;-67
2022/04/05 11:54:28;;;;;;;7.72;6.13;;;15.70;99.90;;;;;;5062004;28;20213;-68
2022/04/05 11:57:03;;;;;;;9.80;6.78;;;15.40;99.90;;;;;;5092313;28;20231;-67
2022/04/05 11:59:29;;;;;;;8.43;6.03;;;15.40;99.90;;;;;;5092868;28;20196;-68
2022/04/05 12:01:56;;;;;;;7.82;5.80;;;15.50;99.90;;;;;;5092685;28;20295;-67
2022/04/05 12:04:22;;;;;;;7.43;6.15;;;15.30;99.90;;;;;;5041158;28;20185;-67
2022/04/05 12:06:53;;;;;;;7.30;5.65;;;15.40;99.90;;;;;;5086513;28;20213;-67
2022/04/05 12:09:21;;;;;;;7.95;5.57;;;15.70;99.90;;;;;;5092225;28;20238;-68
2022/04/05 12:11:51;;;;;;;5.25;4.75;;;16.20;99.90;;;;;;5092774;28;20543;-68
2022/04/05 12:14:18;;;;;;;7.57;4.93;;;16.40;99.90;;;;;;5058400;28;20729;-67
2022/04/05 12:16:50;;;;;;;5.85;4.93;;;16.40;99.90;;;;;;5091890;28;20188;-68
2022/04/05 12:19:24;;;;;;;5.30;4.80;;;16.20;99.90;;;;;;5074745;28;20302;-68
2022/04/05 12:21:57;;;;;;;5.15;4.57;;;16.30;99.90;;;;;;5092506;28;20226;-68
2022/04/05 12:24:24;;;;;;;4.80;4.25;;;16.20;99.90;;;;;;5084295;28;20226;-68
2022/04/05 12:26:50;;;;;;;7.20;4.43;;;16.00;99.90;;;;;;5078151;28;20188;-68
2022/04/05 12:29:16;;;;;;;7.00;4.30;;;16.00;99.90;;;;;;5083307;28;20660;-68
2022/04/05 12:31:41;;;;;;;7.72;4.95;;;15.90;99.90;;;;;;5092510;28;20278;-68
2022/04/05 12:34:11;;;;;;;6.05;5.22;;;15.90;99.90;;;;;;5073246;28;20292;-68
2022/04/05 12:36:46;;;;;;;6.30;5.05;;;15.90;99.90;;;;;;5088430;28;20181;-68
2022/04/05 12:39:27;;;;;;;8.05;5.13;;;16.00;99.90;;;;;;5087588;28;20175;-68